Time;durP1;ratioP1;P1;durP2;ratioP2;P2;SDS_P1;SDS_P2;PMS_P1;PMS_P2;Temp;Humidity;BMP_temperature;BMP_pressure;BME280_temperature;BME280_humidity;BME280_pressure;Samples;Min_cycle;Max_cycle;Signal;HPM_P1;HPM_P2
2022/03/12 00:00:50;;;;;;;31.58;13.35;;;;;;;3.58;81.09;101637.28;6307801;22;20084;-82
2022/03/12 00:03:16;;;;;;;28.27;14.00;;;;;;;3.33;83.49;101634.44;6308021;22;20011;-83
2022/03/12 00:06:06;;;;;;;42.80;14.48;;;;;;;3.68;81.43;101634.16;6309251;22;19999;-79
2022/03/12 00:08:40;;;;;;;28.52;13.43;;;;;;;3.52;83.16;101636.81;6306694;22;20037;-81
2022/03/12 00:11:06;;;;;;;30.20;13.30;;;;;;;3.60;81.39;101645.09;6308307;22;20031;-80
2022/03/12 00:13:32;;;;;;;32.25;14.20;;;;;;;3.50;82.08;101643.94;6310135;22;20169;-83
2022/03/12 00:15:58;;;;;;;29.05;14.73;;;;;;;3.38;83.35;101640.22;6307888;22;20003;-82
2022/03/12 00:18:30;;;;;;;31.83;13.25;;;;;;;3.43;83.37;101640.81;6307795;22;20431;-83
2022/03/12 00:21:01;;;;;;;24.73;14.00;;;;;;;3.47;82.67;101641.50;6307258;22;20034;-80
2022/03/12 00:23:30;;;;;;;26.08;13.23;;;;;;;3.38;82.94;101639.41;6307615;22;20010;-82
2022/03/12 00:25:59;;;;;;;28.90;15.20;;;;;;;3.15;85.49;101632.03;6312315;22;20070;-81
2022/03/12 00:28:26;;;;;;;31.08;14.20;;;;;;;2.96;87.23;101634.81;6312991;22;20746;-80
2022/03/12 00:30:52;;;;;;;31.50;14.55;;;;;;;2.94;87.68;101634.94;6310808;22;20011;-80
2022/03/12 00:33:20;;;;;;;27.45;13.98;;;;;;;2.96;87.30;101630.44;6310031;22;20003;-81
2022/03/12 00:35:51;;;;;;;38.38;14.20;;;;;;;2.88;88.26;101626.56;6307738;22;20057;-81
2022/03/12 00:38:20;;;;;;;23.58;12.75;;;;;;;2.97;87.61;101629.53;6307363;22;20037;-80
2022/03/12 00:40:46;;;;;;;27.75;12.82;;;;;;;3.06;86.25;101628.16;6307187;22;20056;-82
2022/03/12 00:43:12;;;;;;;25.50;13.40;;;;;;;2.82;87.52;101629.50;6307146;22;20038;-81
2022/03/12 00:45:41;;;;;;;34.25;14.10;;;;;;;2.77;88.74;101618.47;6307032;22;20041;-78
2022/03/12 00:48:07;;;;;;;28.40;13.77;;;;;;;2.83;89.45;101624.19;6307056;22;20011;-80
2022/03/12 00:50:33;;;;;;;35.33;14.45;;;;;;;2.77;89.02;101610.63;6306573;22;20014;-78
2022/03/12 00:52:59;;;;;;;32.92;13.93;;;;;;;2.80;89.98;101613.06;6306880;22;20003;-79
2022/03/12 00:55:25;;;;;;;24.33;12.45;;;;;;;3.09;87.30;101620.09;6306968;22;20007;-81
2022/03/12 00:57:51;;;;;;;41.45;14.15;;;;;;;2.94;87.15;101615.75;6306805;22;20018;-80
2022/03/12 01:00:21;;;;;;;28.65;14.63;;;;;;;2.81;87.43;101617.38;6307185;22;20007;-80
2022/03/12 01:02:47;;;;;;;28.02;14.13;;;;;;;2.85;87.38;101618.91;6306876;22;20085;-80
2022/03/12 01:05:17;;;;;;;31.00;15.52;;;;;;;2.75;88.20;101617.72;6307514;22;20090;-78
2022/03/12 01:07:45;;;;;;;30.48;14.82;;;;;;;2.76;88.20;101617.63;6306913;22;20008;-82
2022/03/12 01:10:12;;;;;;;32.78;14.23;;;;;;;2.69;88.31;101625.88;6307091;22;20007;-80
2022/03/12 01:12:38;;;;;;;31.73;13.65;;;;;;;2.71;88.93;101616.19;6307263;22;20083;-81
2022/03/12 01:15:05;;;;;;;28.30;14.85;;;;;;;2.50;91.42;101612.97;6307077;22;20038;-81
2022/03/12 01:17:33;;;;;;;30.08;15.10;;;;;;;2.60;92.13;101615.00;6307194;22;20091;-80
2022/03/12 01:20:00;;;;;;;39.28;14.88;;;;;;;2.68;91.30;101611.97;6306828;22;20007;-81
2022/03/12 01:22:32;;;;;;;33.78;15.60;;;;;;;2.60;91.23;101604.56;6307149;22;20007;-79
2022/03/12 01:24:58;;;;;;;28.20;11.57;;;;;;;2.52;92.39;101601.50;6306934;22;20007;-79
2022/03/12 01:27:23;;;;;;;34.97;15.48;;;;;;;2.42;91.79;101600.31;6306679;22;20007;-81
2022/03/12 01:29:49;;;;;;;26.92;14.52;;;;;;;2.48;92.83;101593.94;6307215;22;20007;-81
2022/03/12 01:32:15;;;;;;;37.75;15.00;;;;;;;2.48;92.25;101593.94;6307465;22;20007;-81
2022/03/12 01:34:40;;;;;;;28.10;15.00;;;;;;;2.44;92.45;101601.09;6307264;22;20101;-79
2022/03/12 01:37:07;;;;;;;29.60;15.43;;;;;;;2.42;91.76;101589.84;6307757;22;20017;-79
2022/03/12 01:39:33;;;;;;;33.50;15.13;;;;;;;2.33;92.70;101589.50;6308904;22;20015;-81
2022/03/12 01:41:58;;;;;;;33.55;15.98;;;;;;;2.43;93.52;101586.31;6280489;22;20011;-80
2022/03/12 01:44:24;;;;;;;33.70;15.13;;;;;;;2.39;93.30;101592.63;6307867;22;20411;-78
2022/03/12 01:46:50;;;;;;;35.88;15.52;;;;;;;2.49;93.47;101578.13;6307948;22;20431;-81
2022/03/12 01:49:18;;;;;;;31.90;15.18;;;;;;;2.47;92.87;101582.59;6307026;22;20016;-80
2022/03/12 01:51:46;;;;;;;27.67;16.08;;;;;;;2.43;92.89;101578.47;6306821;22;20583;-81
2022/03/12 01:54:18;;;;;;;36.28;15.98;;;;;;;2.43;93.52;101561.91;6279414;22;20493;-82
2022/03/12 01:56:45;;;;;;;32.70;12.53;;;;;;;2.25;94.27;101555.09;6306662;22;20080;-79
2022/03/12 01:59:11;;;;;;;35.28;15.90;;;;;;;2.20;94.96;101557.09;6306956;22;20007;-81
2022/03/12 02:01:37;;;;;;;32.85;16.20;;;;;;;2.11;95.57;101558.47;6279389;22;20086;-79
2022/03/12 02:04:07;;;;;;;34.15;15.88;;;;;;;2.11;96.73;101553.22;6306575;22;20392;-81
2022/03/12 02:06:33;;;;;;;33.63;15.45;;;;;;;2.06;97.13;101550.00;6306714;22;20039;-79
2022/03/12 02:08:59;;;;;;;31.42;16.17;;;;;;;2.15;97.22;101554.75;6306823;22;20014;-80
2022/03/12 02:11:29;;;;;;;34.50;16.65;;;;;;;2.23;97.00;101560.41;6306864;22;20011;-77
2022/03/12 02:14:16;;;;;;;41.50;17.42;;;;;;;2.40;95.45;101565.56;6280600;22;20023;-80
2022/03/12 02:16:49;;;;;;;35.42;16.35;;;;;;;2.66;93.70;101566.72;6308757;22;20461;-80
2022/03/12 02:19:17;;;;;;;44.45;17.67;;;;;;;2.80;92.81;101563.31;6281558;22;20026;-81
2022/03/12 02:21:57;;;;;;;37.90;16.40;;;;;;;2.93;90.54;101565.16;6281224;22;20029;-79
2022/03/12 02:24:26;;;;;;;36.83;17.50;;;;;;;2.92;90.88;101554.75;6308920;22;20010;-79
2022/03/12 02:26:54;;;;;;;35.35;17.38;;;;;;;3.18;88.22;101564.59;6308441;22;20015;-81
2022/03/12 02:29:22;;;;;;;36.40;16.27;;;;;;;3.34;86.90;101562.75;6308415;22;20049;-79
2022/03/12 02:31:50;;;;;;;31.77;17.10;;;;;;;3.17;87.14;101562.91;6308600;22;20093;-79
2022/03/12 02:34:21;;;;;;;31.55;17.02;;;;;;;3.34;86.02;101565.38;6308424;22;20007;-82
2022/03/12 02:36:49;;;;;;;33.72;17.23;;;;;;;3.19;86.06;101554.94;6308535;22;20014;-82
2022/03/12 02:39:16;;;;;;;29.15;15.57;;;;;;;2.99;87.03;101553.47;6308483;22;20035;-80
2022/03/12 02:41:42;;;;;;;30.75;14.10;;;;;;;2.75;88.79;101557.53;6308470;22;20007;-80
2022/03/12 02:44:15;;;;;;;37.88;16.23;;;;;;;2.63;88.52;101551.19;6308651;22;20007;-81
2022/03/12 02:46:41;;;;;;;30.35;14.18;;;;;;;2.44;89.77;101548.78;6308497;22;20084;-79
2022/03/12 02:49:06;;;;;;;27.40;13.55;;;;;;;2.31;90.78;101545.16;6309150;22;20011;-79
2022/03/12 02:51:34;;;;;;;28.45;13.27;;;;;;;2.16;91.95;101551.19;6308710;22;20389;-79
2022/03/12 02:53:59;;;;;;;26.50;13.85;;;;;;;1.95;93.69;101547.16;6308665;22;20004;-80
2022/03/12 02:56:26;;;;;;;25.73;13.52;;;;;;;1.92;94.80;101542.09;6280922;22;20064;-79
2022/03/12 02:58:52;;;;;;;37.55;14.80;;;;;;;2.02;94.69;101535.44;6280927;22;20039;-82
2022/03/12 03:01:19;;;;;;;27.13;13.30;;;;;;;2.02;94.80;101544.09;6281049;22;20450;-80
2022/03/12 03:03:46;;;;;;;24.13;13.05;;;;;;;2.14;93.02;101553.06;6308158;22;20007;-83
2022/03/12 03:06:15;;;;;;;26.88;12.90;;;;;;;2.22;92.93;101553.47;6308161;22;20003;-82
2022/03/12 03:08:42;;;;;;;24.88;12.55;;;;;;;2.09;93.78;101555.06;6308175;22;20053;-81
2022/03/12 03:11:16;;;;;;;30.67;13.35;;;;;;;1.93;94.55;101559.44;6308197;22;20011;-80
2022/03/12 03:13:44;;;;;;;26.20;13.95;;;;;;;2.09;94.48;101560.28;6308316;22;20015;-78
2022/03/12 03:16:28;;;;;;;27.20;13.98;;;;;;;2.24;93.32;101569.94;6308528;22;20044;-80
2022/03/12 03:18:54;;;;;;;44.88;15.23;;;;;;;2.22;91.92;101566.56;6308778;22;20015;-80
2022/03/12 03:21:23;;;;;;;30.23;14.90;;;;;;;2.15;92.88;101586.13;6308720;22;20003;-80
2022/03/12 03:23:49;;;;;;;33.60;14.25;;;;;;;2.06;93.41;101571.78;6308111;22;20532;-80
2022/03/12 03:26:40;;;;;;;27.17;14.10;;;;;;;2.00;94.17;101574.72;6281128;22;20030;-79
2022/03/12 03:29:06;;;;;;;31.67;14.43;;;;;;;2.00;93.97;101568.66;6292086;22;20011;-79
2022/03/12 03:31:32;;;;;;;31.60;14.13;;;;;;;2.06;94.23;101568.31;6308267;22;20015;-79
2022/03/12 03:33:57;;;;;;;31.90;14.60;;;;;;;2.16;93.44;101577.34;6308481;22;20094;-79
2022/03/12 03:36:24;;;;;;;35.58;14.38;;;;;;;2.21;93.03;101575.34;6308261;22;20102;-80
2022/03/12 03:38:50;;;;;;;31.63;14.10;;;;;;;2.32;92.84;101572.97;6281217;22;20431;-79
2022/03/12 03:41:16;;;;;;;29.00;13.55;;;;;;;2.25;92.47;101587.34;6281784;22;20018;-81
2022/03/12 03:43:47;;;;;;;27.92;13.63;;;;;;;2.29;91.84;101578.38;6308510;22;20012;-79
2022/03/12 03:46:17;;;;;;;31.85;14.55;;;;;;;2.34;92.32;101585.97;6308668;22;20034;-78
2022/03/12 03:48:45;;;;;;;28.45;14.32;;;;;;;2.28;91.08;101579.31;6284772;22;20019;-79
2022/03/12 03:51:11;;;;;;;33.90;14.57;;;;;;;2.16;92.07;101593.03;6325187;22;20094;-79
2022/03/12 03:53:37;;;;;;;29.63;15.00;;;;;;;2.17;91.95;101594.72;6321681;22;20018;-78
2022/03/12 03:56:05;;;;;;;35.45;15.43;;;;;;;2.31;90.91;101586.16;6322738;22;20404;-79
2022/03/12 03:58:34;;;;;;;33.33;14.68;;;;;;;2.28;91.26;101599.41;6324533;22;19995;-78
2022/03/12 04:01:13;;;;;;;28.40;14.57;;;;;;;2.20;91.49;101597.19;6326082;22;20007;-80
2022/03/12 04:03:49;;;;;;;34.20;14.50;;;;;;;1.96;93.57;101595.88;6324651;22;20018;-82
2022/03/12 04:06:17;;;;;;;29.30;14.82;;;;;;;2.05;92.25;101591.00;6322410;22;20020;-82
2022/03/12 04:08:43;;;;;;;28.17;14.70;;;;;;;2.08;93.06;101605.69;6322732;22;20014;-85
2022/03/12 04:11:18;;;;;;;39.28;15.25;;;;;;;2.25;91.32;101600.41;6322131;22;20007;-85
2022/03/12 04:13:44;;;;;;;24.67;14.35;;;;;;;2.21;90.92;101598.88;6328512;22;20065;-80
2022/03/12 04:16:10;;;;;;;34.20;15.82;;;;;;;2.09;91.36;101592.53;6327965;22;20431;-82
2022/03/12 04:18:38;;;;;;;29.52;15.05;;;;;;;1.99;92.60;101603.53;6325280;22;20015;-81
2022/03/12 04:21:07;;;;;;;33.42;14.93;;;;;;;1.86;94.63;101597.28;6313320;22;20060;-80
2022/03/12 04:23:34;;;;;;;33.40;15.35;;;;;;;1.62;96.68;101596.81;6309185;22;20012;-80
2022/03/12 04:26:00;;;;;;;32.90;15.60;;;;;;;1.72;95.83;101602.41;6280981;22;20015;-81
2022/03/12 04:28:32;;;;;;;27.08;15.05;;;;;;;1.58;98.51;101604.88;6308752;22;20007;-79
2022/03/12 04:31:02;;;;;;;31.58;15.18;;;;;;;1.50;98.50;101603.47;6280978;22;20439;-80
2022/03/12 04:33:29;;;;;;;30.98;14.77;;;;;;;1.48;99.19;101607.09;6310382;22;20060;-81
2022/03/12 04:35:56;;;;;;;31.58;15.30;;;;;;;1.51;99.72;101599.97;6314613;22;20056;-79
2022/03/12 04:38:23;;;;;;;35.97;17.10;;;;;;;1.50;98.59;101595.66;6308493;22;20359;-81
2022/03/12 04:40:49;;;;;;;30.95;16.52;;;;;;;1.41;100.00;101597.88;6308296;22;20066;-83
2022/03/12 04:43:18;;;;;;;40.70;16.17;;;;;;;1.33;100.00;101610.47;6280346;22;20003;-80
2022/03/12 04:45:46;;;;;;;30.35;15.98;;;;;;;1.42;100.00;101599.59;6307698;22;20003;-83
2022/03/12 04:48:19;;;;;;;29.27;15.90;;;;;;;1.36;100.00;101605.94;6307907;22;20013;-82
2022/03/12 04:50:44;;;;;;;30.73;15.20;;;;;;;1.66;100.00;101602.72;6308151;22;20370;-79
2022/03/12 04:53:10;;;;;;;38.17;15.25;;;;;;;1.50;98.67;101616.53;6308346;22;20011;-79
2022/03/12 04:55:36;;;;;;;34.75;16.60;;;;;;;1.34;100.00;101610.41;6308372;22;20011;-80
2022/03/12 04:58:07;;;;;;;36.72;17.50;;;;;;;1.35;100.00;101617.31;6307678;22;20042;-82
2022/03/12 05:00:38;;;;;;;33.92;16.20;;;;;;;1.31;100.00;101612.31;6307791;22;20037;-85
2022/03/12 05:03:03;;;;;;;34.05;16.83;;;;;;;1.21;100.00;101614.56;6307431;22;20124;-80
2022/03/12 05:05:30;;;;;;;40.22;16.85;;;;;;;1.25;100.00;101618.72;6280300;22;20049;-82
2022/03/12 05:07:56;;;;;;;35.03;17.13;;;;;;;1.33;100.00;101616.53;6307742;22;20011;-81
2022/03/12 05:10:23;;;;;;;31.52;17.77;;;;;;;1.48;100.00;101615.78;6307291;22;20426;-82
2022/03/12 05:12:48;;;;;;;38.30;18.30;;;;;;;1.52;100.00;101619.91;6308792;22;20012;-83
2022/03/12 05:15:16;;;;;;;36.63;18.10;;;;;;;1.53;100.00;101621.59;6307477;22;20450;-78
2022/03/12 05:17:44;;;;;;;35.88;18.58;;;;;;;1.48;100.00;101615.78;6307301;22;20025;-79
2022/03/12 05:20:11;;;;;;;37.03;18.25;;;;;;;1.48;100.00;101614.94;6307049;22;20039;-79
2022/03/12 05:22:37;;;;;;;44.17;18.33;;;;;;;1.44;100.00;101614.25;6307051;22;20076;-81
2022/03/12 05:25:03;;;;;;;42.10;19.13;;;;;;;1.37;100.00;101618.09;6307098;22;20423;-80
2022/03/12 05:27:29;;;;;;;53.42;19.77;;;;;;;1.33;100.00;101615.69;6307521;22;20003;-79
2022/03/12 05:29:55;;;;;;;38.05;19.88;;;;;;;1.45;100.00;101621.16;6307130;22;20035;-82
2022/03/12 05:32:21;;;;;;;37.88;19.13;;;;;;;1.28;100.00;101629.00;6307387;22;20018;-80
2022/03/12 05:34:46;;;;;;;43.38;18.55;;;;;;;1.42;100.00;101629.16;6307480;22;20014;-81
2022/03/12 05:37:12;;;;;;;41.60;20.15;;;;;;;1.31;100.00;101631.44;6306971;22;20054;-81
2022/03/12 05:39:38;;;;;;;37.88;19.67;;;;;;;1.23;100.00;101633.59;6307401;22;20053;-81
2022/03/12 05:42:05;;;;;;;42.00;19.25;;;;;;;1.19;100.00;101644.28;6307012;22;20031;-80
2022/03/12 05:44:34;;;;;;;45.50;20.60;;;;;;;1.19;100.00;101639.06;6308121;22;20011;-80
2022/03/12 05:47:04;;;;;;;40.55;20.35;;;;;;;1.21;100.00;101639.81;6307459;22;20081;-83
2022/03/12 05:49:29;;;;;;;41.55;19.52;;;;;;;1.24;100.00;101635.28;6311176;22;20011;-83
2022/03/12 05:51:56;;;;;;;45.42;19.77;;;;;;;1.36;100.00;101641.69;6310132;22;20034;-84
2022/03/12 05:54:23;;;;;;;37.65;17.98;;;;;;;1.61;100.00;101642.13;6310409;22;20031;-81
2022/03/12 05:56:49;;;;;;;41.90;19.73;;;;;;;1.63;99.52;101648.13;6309507;22;20017;-80
2022/03/12 05:59:14;;;;;;;36.13;17.75;;;;;;;1.45;100.00;101652.50;6282778;22;20404;-86
2022/03/12 06:01:40;;;;;;;34.92;17.33;;;;;;;1.80;99.09;101662.94;6309911;22;20037;-83
2022/03/12 06:04:06;;;;;;;38.88;18.75;;;;;;;1.84;97.62;101659.25;6309117;22;20334;-83
2022/03/12 06:06:35;;;;;;;34.42;18.35;;;;;;;2.04;94.84;101665.16;6282499;22;20015;-85
2022/03/12 06:09:07;;;;;;;44.95;19.08;;;;;;;1.87;95.29;101666.94;6309531;22;20033;-85
2022/03/12 06:11:36;;;;;;;38.03;18.67;;;;;;;1.80;96.06;101663.78;6309237;22;20005;-84
2022/03/12 06:14:02;;;;;;;40.63;19.88;;;;;;;1.83;96.87;101665.38;6308674;22;20080;-85
2022/03/12 06:16:28;;;;;;;38.97;18.90;;;;;;;2.27;93.50;101663.94;6309967;22;20011;-86
2022/03/12 06:18:53;;;;;;;39.50;19.45;;;;;;;2.58;92.87;101674.47;6310538;22;20022;-85
2022/03/12 06:21:20;;;;;;;42.60;19.02;;;;;;;3.05;86.96;101684.06;6308935;22;20432;-84
2022/03/12 06:23:47;;;;;;;42.25;19.92;;;;;;;2.98;86.67;101683.56;6312977;22;20439;-86
2022/03/12 06:26:17;;;;;;;42.13;20.25;;;;;;;2.70;87.67;101687.78;6313987;22;20007;-84
2022/03/12 06:28:46;;;;;;;44.13;20.25;;;;;;;2.95;87.46;101688.16;6315873;22;20014;-83
2022/03/12 06:31:13;;;;;;;37.97;19.63;;;;;;;2.80;88.31;101694.22;6282017;22;20517;-85
2022/03/12 06:33:40;;;;;;;42.88;20.42;;;;;;;3.30;86.12;101687.00;6314760;22;20035;-83
2022/03/12 06:36:08;;;;;;;42.10;21.77;;;;;;;3.70;81.50;101697.81;6309824;22;20003;-84
2022/03/12 06:38:35;;;;;;;58.83;22.83;;;;;;;3.45;83.59;101703.59;6309135;22;20096;-84
2022/03/12 06:41:01;;;;;;;53.50;22.42;;;;;;;3.25;84.57;101696.88;6282622;22;20058;-83
2022/03/12 06:43:28;;;;;;;55.80;21.70;;;;;;;3.40;82.67;101703.88;6283326;22;20122;-82
2022/03/12 06:45:57;;;;;;;52.00;21.10;;;;;;;3.54;83.41;101703.94;6309363;22;20007;-84
2022/03/12 06:48:25;;;;;;;43.03;20.85;;;;;;;3.77;81.74;101709.63;6309323;22;20418;-84
2022/03/12 06:50:52;;;;;;;44.13;20.80;;;;;;;3.98;79.02;101714.44;6309023;22;20341;-84
2022/03/12 06:53:18;;;;;;;40.72;20.23;;;;;;;4.47;76.83;101722.84;6311016;22;20098;-84
2022/03/12 06:55:44;;;;;;;38.40;20.95;;;;;;;4.82;73.66;101719.81;6309183;22;20027;-83
2022/03/12 06:58:11;;;;;;;46.47;21.85;;;;;;;5.18;71.31;101728.84;6309465;22;20003;-83
2022/03/12 07:00:36;;;;;;;39.13;19.65;;;;;;;5.76;68.86;101732.09;6308176;22;20019;-85
2022/03/12 07:03:03;;;;;;;34.97;18.98;;;;;;;5.14;70.38;101729.13;6309794;22;20335;-85
2022/03/12 07:05:29;;;;;;;44.83;20.90;;;;;;;4.71;73.59;101727.53;6307754;22;20015;-84
2022/03/12 07:07:56;;;;;;;41.15;20.90;;;;;;;4.94;72.00;101725.13;6308746;22;20473;-84
2022/03/12 07:10:23;;;;;;;38.80;20.25;;;;;;;4.72;72.24;101737.06;6309018;22;20443;-83
2022/03/12 07:12:50;;;;;;;39.05;20.17;;;;;;;4.79;71.75;101739.25;6308359;22;20022;-84
2022/03/12 07:15:17;;;;;;;36.85;21.27;;;;;;;4.29;74.82;101739.69;6308441;22;20003;-85
2022/03/12 07:17:42;;;;;;;42.97;21.58;;;;;;;3.84;77.22;101742.44;6309116;22;20017;-85
2022/03/12 07:20:09;;;;;;;42.83;21.38;;;;;;;4.37;75.70;101744.50;6308181;22;20379;-83
2022/03/12 07:22:35;;;;;;;40.70;21.63;;;;;;;4.74;73.96;101745.72;6308327;22;20007;-85
2022/03/12 07:25:04;;;;;;;42.55;22.15;;;;;;;4.69;75.10;101738.97;6314658;22;20014;-83
2022/03/12 07:27:30;;;;;;;45.53;20.50;;;;;;;5.53;70.25;101738.88;6282143;22;20007;-84
2022/03/12 07:29:56;;;;;;;39.88;20.33;;;;;;;5.47;69.03;101747.16;6308742;22;20433;-84
2022/03/12 07:32:21;;;;;;;46.15;20.25;;;;;;;5.82;68.18;101744.84;6308922;22;20003;-85
2022/03/12 07:34:48;;;;;;;43.75;21.38;;;;;;;5.85;68.28;101742.84;6282079;22;20014;-84
2022/03/12 07:37:13;;;;;;;50.08;21.00;;;;;;;6.12;65.68;101761.25;6309619;22;20007;-84
2022/03/12 07:39:39;;;;;;;46.13;20.98;;;;;;;6.76;65.31;101761.13;6311128;22;20015;-85
2022/03/12 07:42:05;;;;;;;48.50;20.25;;;;;;;6.42;64.28;101766.22;6286629;22;20041;-85
2022/03/12 07:44:31;;;;;;;43.17;21.20;;;;;;;6.68;63.32;101778.44;6322269;22;20011;-83
2022/03/12 07:46:57;;;;;;;41.33;20.58;;;;;;;6.10;66.25;101773.66;6299025;22;20027;-84
2022/03/12 07:49:24;;;;;;;45.15;21.88;;;;;;;6.45;65.86;101781.81;6324879;22;20007;-84
2022/03/12 07:51:50;;;;;;;49.90;21.27;;;;;;;7.12;63.75;101770.88;6324366;22;20011;-83
2022/03/12 07:54:16;;;;;;;44.58;20.63;;;;;;;7.39;61.76;101783.84;6311649;22;20007;-86
2022/03/12 07:56:43;;;;;;;42.15;22.23;;;;;;;7.39;62.08;101773.31;6309046;22;20011;-83
2022/03/12 07:59:10;;;;;;;45.88;20.95;;;;;;;7.24;61.65;101780.56;6294365;22;20030;-85
2022/03/12 08:01:37;;;;;;;37.63;20.35;;;;;;;7.80;60.03;101778.19;6316111;22;20003;-83
2022/03/12 08:04:04;;;;;;;45.90;20.35;;;;;;;8.02;58.53;101766.91;6311941;22;20008;-85
2022/03/12 08:06:30;;;;;;;39.17;20.63;;;;;;;7.69;59.59;101771.06;6284681;22;20017;-81
2022/03/12 08:08:57;;;;;;;34.78;19.58;;;;;;;7.66;59.31;101778.38;6282803;22;20381;-84
2022/03/12 08:11:28;;;;;;;36.80;19.58;;;;;;;7.48;59.93;101788.50;6284507;22;20077;-82
2022/03/12 08:14:00;;;;;;;40.53;19.75;;;;;;;7.37;60.85;101783.13;6309153;22;20063;-84
2022/03/12 08:16:28;;;;;;;35.72;19.08;;;;;;;7.24;61.73;101784.97;6280998;22;20022;-81
2022/03/12 08:18:54;;;;;;;36.15;19.33;;;;;;;7.39;61.33;101778.59;6308524;22;20015;-82
2022/03/12 08:21:20;;;;;;;37.38;19.45;;;;;;;7.50;61.24;101775.19;6307128;22;20330;-86
2022/03/12 08:23:46;;;;;;;34.70;17.98;;;;;;;7.69;61.06;101772.88;6280797;22;20026;-83
2022/03/12 08:26:13;;;;;;;33.50;17.55;;;;;;;7.78;60.11;101765.13;6309606;22;20066;-85
2022/03/12 08:28:39;;;;;;;29.17;17.90;;;;;;;7.79;60.77;101772.09;6311509;22;20015;-85
2022/03/12 08:31:07;;;;;;;31.00;17.85;;;;;;;8.38;58.60;101780.00;6282710;22;20015;-83
2022/03/12 08:33:33;;;;;;;32.25;18.30;;;;;;;8.17;59.59;101776.28;6280274;22;20098;-84
2022/03/12 08:36:00;;;;;;;31.02;16.38;;;;;;;8.77;57.26;101781.34;6312311;22;20319;-85
2022/03/12 08:38:26;;;;;;;31.58;16.33;;;;;;;8.50;57.60;101778.19;6285680;22;20003;-84
2022/03/12 08:40:52;;;;;;;33.40;18.27;;;;;;;8.95;55.82;101773.78;6283227;22;20022;-86
2022/03/12 08:43:19;;;;;;;34.17;17.17;;;;;;;8.93;56.64;101791.56;6282342;22;20011;-87
2022/03/12 08:45:45;;;;;;;29.40;16.80;;;;;;;9.40;53.62;101785.97;6281810;22;20342;-84
2022/03/12 08:48:12;;;;;;;28.70;15.45;;;;;;;9.54;52.16;101787.50;6308344;22;20011;-83
2022/03/12 08:50:37;;;;;;;35.97;15.43;;;;;;;9.20;53.09;101786.75;6308109;22;20007;-85
2022/03/12 08:53:04;;;;;;;26.75;14.70;;;;;;;8.94;54.17;101786.16;6308188;22;20461;-84
2022/03/12 08:55:32;;;;;;;26.42;15.13;;;;;;;9.40;53.24;101780.69;6256046;22;20454;-87
2022/03/12 08:57:58;;;;;;;27.90;14.35;;;;;;;8.83;53.65;101787.00;6308509;22;20056;-86
2022/03/12 09:00:24;;;;;;;31.95;15.25;;;;;;;9.27;53.19;101780.00;6308108;22;20035;-85
2022/03/12 09:02:51;;;;;;;34.67;13.98;;;;;;;9.52;52.14;101784.13;6255619;22;20014;-85
2022/03/12 09:05:17;;;;;;;30.88;14.27;;;;;;;9.45;51.38;101777.66;6308318;22;20018;-87
2022/03/12 09:07:44;;;;;;;27.42;15.10;;;;;;;9.53;51.85;101776.09;6281322;22;19999;-88
2022/03/12 09:10:13;;;;;;;28.02;15.63;;;;;;;9.59;52.33;101785.31;6310642;22;20045;-87
2022/03/12 09:12:43;;;;;;;31.17;15.20;;;;;;;10.00;51.94;101779.28;6308570;22;20087;-84
2022/03/12 09:15:10;;;;;;;22.05;13.80;;;;;;;10.48;49.98;101782.28;6308126;22;20062;-85
2022/03/12 09:17:36;;;;;;;30.33;14.23;;;;;;;10.11;50.49;101788.00;6280040;22;20098;-82
2022/03/12 09:20:06;;;;;;;31.05;15.02;;;;;;;10.34;49.72;101788.78;6307654;22;20013;-85
2022/03/12 09:22:32;;;;;;;29.90;14.45;;;;;;;9.93;51.06;101786.06;6307770;22;20408;-83
2022/03/12 09:24:57;;;;;;;29.80;15.55;;;;;;;10.16;50.32;101791.16;6307282;22;20031;-84
2022/03/12 09:27:23;;;;;;;25.13;15.82;;;;;;;9.83;51.28;101794.75;6280544;22;20074;-83
2022/03/12 09:29:48;;;;;;;35.85;18.52;;;;;;;10.08;50.72;101792.72;6307749;22;20053;-84
2022/03/12 09:32:14;;;;;;;32.95;16.38;;;;;;;10.83;48.82;101804.81;6300345;22;20489;-82
2022/03/12 09:34:40;;;;;;;27.52;14.40;;;;;;;10.78;47.72;101799.06;6277034;22;20056;-82
2022/03/12 09:37:07;;;;;;;24.85;13.55;;;;;;;10.77;48.51;101793.91;6254746;22;20101;-82
2022/03/12 09:39:34;;;;;;;27.83;15.10;;;;;;;10.60;48.65;101784.75;6309811;22;20078;-84
2022/03/12 09:42:00;;;;;;;26.55;15.10;;;;;;;10.92;47.79;101783.75;6307953;22;20018;-84
2022/03/12 09:44:26;;;;;;;25.27;15.52;;;;;;;10.85;48.21;101789.59;6305340;22;20011;-87
2022/03/12 09:46:52;;;;;;;27.52;14.15;;;;;;;11.32;46.77;101806.66;6310519;22;20045;-88
2022/03/12 09:49:17;;;;;;;29.10;14.93;;;;;;;11.28;46.64;101769.91;6308805;22;20018;-87
2022/03/12 09:51:46;;;;;;;23.50;12.93;;;;;;;11.20;46.28;101791.00;6314057;22;20049;-89
2022/03/12 09:54:12;;;;;;;23.13;13.95;;;;;;;11.30;46.33;101786.56;6317278;22;20060;-85
2022/03/12 09:56:39;;;;;;;25.33;13.05;;;;;;;11.70;44.78;101774.06;6311339;22;20007;-87
2022/03/12 09:59:05;;;;;;;27.95;12.95;;;;;;;11.51;45.73;101800.56;6313006;22;20434;-88
2022/03/12 10:01:34;;;;;;;23.02;13.43;;;;;;;11.42;45.98;101788.09;6313013;22;20336;-86
2022/03/12 10:03:59;;;;;;;21.30;13.07;;;;;;;12.03;45.38;101769.31;6313570;22;20043;-87
2022/03/12 10:06:25;;;;;;;24.13;13.98;;;;;;;11.84;45.04;101768.34;6287904;22;20029;-87
2022/03/12 10:08:52;;;;;;;20.95;12.82;;;;;;;12.22;44.70;101772.78;6288643;22;19999;-83
2022/03/12 10:11:18;;;;;;;25.05;13.15;;;;;;;11.78;44.69;101776.03;6286614;22;20007;-88
2022/03/12 10:13:44;;;;;;;22.48;13.45;;;;;;;12.06;44.28;101772.53;6258315;22;20011;-84
2022/03/12 10:16:10;;;;;;;27.27;13.23;;;;;;;12.00;43.66;101761.63;6313213;22;20015;-84
2022/03/12 10:18:36;;;;;;;27.65;13.77;;;;;;;11.90;44.40;101767.78;6284448;22;20081;-89
2022/03/12 10:21:03;;;;;;;30.92;13.88;;;;;;;11.53;44.92;101757.94;6312214;22;20021;-90
2022/03/12 10:23:29;;;;;;;22.80;13.50;;;;;;;11.31;45.53;101759.03;6310725;22;20014;-86
2022/03/12 10:25:54;;;;;;;24.48;12.95;;;;;;;12.25;44.36;101753.06;6312742;22;20007;-88
2022/03/12 10:28:20;;;;;;;20.88;13.55;;;;;;;12.65;42.52;101751.00;6310141;22;20339;-88
2022/03/12 10:30:53;;;;;;;20.40;13.20;;;;;;;12.75;41.91;101759.78;6282926;22;20010;-89
2022/03/12 10:33:25;;;;;;;34.25;14.55;;;;;;;13.57;41.03;101757.09;6326826;22;20015;-88
2022/03/12 10:35:52;;;;;;;22.35;13.38;;;;;;;13.28;40.29;101761.78;6267876;22;20007;-88
2022/03/12 10:38:17;;;;;;;28.65;13.68;;;;;;;13.32;40.53;101757.84;6267919;22;20011;-87
2022/03/12 10:40:44;;;;;;;27.15;13.68;;;;;;;13.09;40.67;101764.56;6313939;22;19999;-85
2022/03/12 10:43:14;;;;;;;22.33;13.10;;;;;;;12.64;40.84;101765.25;6321679;22;20007;-88
2022/03/12 10:46:01;;;;;;;20.83;13.65;;;;;;;11.79;42.13;101765.28;6300095;22;20007;-86
2022/03/12 10:48:29;;;;;;;22.98;13.75;;;;;;;11.65;43.33;101751.53;6319705;22;20015;-89
2022/03/12 10:50:58;;;;;;;33.65;14.95;;;;;;;11.52;43.09;101761.56;6315626;22;20015;-85
2022/03/12 10:53:24;;;;;;;29.67;15.30;;;;;;;11.47;42.73;101754.00;6311993;22;20055;-85
2022/03/12 10:55:50;;;;;;;23.38;14.43;;;;;;;11.54;43.25;101749.84;6284435;22;20075;-83
2022/03/12 10:58:33;;;;;;;33.33;14.85;;;;;;;12.01;42.87;101736.72;6313293;22;20496;-84
2022/03/12 11:01:02;;;;;;;30.17;14.98;;;;;;;12.36;40.92;101752.91;6292007;22;20391;-90
2022/03/12 11:03:33;;;;;;;24.48;14.73;;;;;;;12.78;39.55;101740.88;6317618;22;20008;-88
2022/03/12 11:06:05;;;;;;;18.15;9.45;;;;;;;13.03;39.04;101757.13;6314052;22;20029;-84
2022/03/12 11:08:36;;;;;;;24.52;14.93;;;;;;;12.57;40.60;101729.59;6313706;22;20007;-85
2022/03/12 11:11:11;;;;;;;28.70;15.10;;;;;;;12.30;41.31;101735.69;6282295;22;20086;-83
2022/03/12 11:13:41;;;;;;;26.40;15.52;;;;;;;13.05;39.23;101757.81;6308936;22;20064;-85
2022/03/12 11:16:15;;;;;;;25.02;15.07;;;;;;;13.32;37.94;101731.22;6282164;22;20015;-84